createdAt,value
2022-12-25T00:01:24.633Z,14.00
2022-12-25T00:03:53.035Z,12.23
2022-12-25T00:06:21.536Z,9.17
2022-12-25T00:08:48.881Z,18.97
2022-12-25T00:11:19.087Z,22.27
2022-12-25T00:18:09.875Z,28.63
2022-12-25T00:20:36.818Z,19.23
2022-12-25T00:23:04.345Z,19.97
2022-12-25T00:25:31.321Z,22.53
2022-12-25T00:27:58.507Z,22.03
2022-12-25T00:30:25.877Z,21.67
2022-12-25T00:32:53.115Z,28.17
2022-12-25T00:40:11.324Z,20.47
2022-12-25T00:42:38.795Z,29.43
2022-12-25T00:45:06.585Z,19.63
2022-12-25T00:47:33.961Z,21.40
2022-12-25T00:50:01.191Z,11.23
2022-12-25T00:52:28.817Z,22.00
2022-12-25T00:54:57.144Z,24.27
2022-12-25T01:01:38.788Z,15.70
2022-12-25T01:04:06.664Z,16.93
2022-12-25T01:06:33.981Z,16.03
2022-12-25T01:09:18.893Z,13.83
2022-12-25T01:11:46.288Z,18.93
2022-12-25T01:14:13.475Z,17.03
2022-12-25T01:16:41.409Z,17.87
2022-12-25T01:23:10.617Z,26.30
2022-12-25T01:25:38.446Z,24.60
2022-12-25T01:28:05.548Z,24.23
2022-12-25T01:30:33.695Z,26.20
2022-12-25T01:33:00.996Z,23.10
2022-12-25T01:35:28.009Z,22.57
2022-12-25T01:37:56.177Z,20.93
2022-12-25T01:45:35.263Z,25.30
2022-12-25T01:48:06.086Z,19.17
2022-12-25T01:50:34.603Z,29.80
2022-12-25T01:53:02.398Z,21.33
2022-12-25T01:55:30.301Z,15.67
2022-12-25T01:57:57.645Z,16.20
2022-12-25T02:06:16.139Z,22.40
2022-12-25T02:09:04.857Z,16.57
2022-12-25T02:11:50.530Z,15.40
2022-12-25T02:14:18.986Z,19.60
2022-12-25T02:17:08.702Z,26.17
2022-12-25T02:20:33.874Z,21.77
2022-12-25T02:23:24.893Z,11.63
2022-12-25T02:26:07.924Z,16.93
2022-12-25T02:29:23.185Z,19.30
2022-12-25T02:34:58.354Z,18.73
2022-12-25T02:37:31.534Z,21.87
2022-12-25T02:40:03.060Z,23.33
2022-12-25T02:42:59.828Z,13.87
2022-12-25T02:45:53.306Z,25.40
2022-12-25T02:48:42.536Z,18.70
2022-12-25T02:51:33.045Z,22.00
2022-12-25T02:54:22.218Z,20.80
2022-12-25T02:57:10.725Z,19.60
2022-12-25T03:06:14.148Z,20.20
2022-12-25T03:08:45.985Z,25.43
2022-12-25T03:11:31.938Z,19.33
2022-12-25T03:14:17.706Z,24.93
2022-12-25T03:16:53.215Z,21.00
2022-12-25T03:19:40.698Z,23.53
2022-12-25T03:27:34.973Z,67.53
2022-12-25T03:30:20.477Z,128.37
2022-12-25T03:32:58.108Z,39.00
2022-12-25T03:35:43.718Z,56.57
2022-12-25T03:38:39.285Z,119.80
2022-12-25T03:41:36.096Z,135.50
2022-12-25T03:49:32.717Z,31.97
2022-12-25T03:52:20.558Z,37.33
2022-12-25T03:55:09.039Z,49.27
2022-12-25T03:57:54.404Z,23.30
2022-12-25T04:00:42.539Z,109.20
2022-12-25T04:03:30.420Z,134.50
2022-12-25T04:06:16.351Z,133.27
2022-12-25T04:09:02.460Z,359.93
2022-12-25T04:17:13.347Z,309.23
2022-12-25T04:19:58.623Z,482.43
2022-12-25T04:22:43.673Z,210.40
2022-12-25T04:25:29.117Z,162.80
2022-12-25T04:28:19.445Z,193.90
2022-12-25T04:31:05.112Z,77.03
2022-12-25T04:37:25.269Z,56.17
2022-12-25T04:39:54.742Z,269.80
2022-12-25T04:42:21.779Z,187.43
2022-12-25T04:44:49.028Z,128.70
2022-12-25T04:47:16.320Z,229.43
2022-12-25T04:49:43.538Z,154.10
2022-12-25T04:52:10.817Z,125.53
2022-12-25T04:58:54.727Z,88.00
2022-12-25T05:01:22.697Z,202.30
2022-12-25T05:03:56.891Z,141.77
2022-12-25T05:06:34.521Z,200.77
2022-12-25T05:09:08.632Z,97.67
2022-12-25T05:11:42.274Z,156.13
2022-12-25T05:14:11.487Z,339.80
2022-12-25T05:16:41.290Z,80.63
2022-12-25T05:22:09.049Z,212.60
2022-12-25T05:24:35.970Z,94.93
2022-12-25T05:27:03.547Z,189.97
2022-12-25T05:29:31.193Z,104.03
2022-12-25T05:31:58.089Z,116.07
2022-12-25T05:34:25.614Z,183.47
2022-12-25T05:36:52.926Z,77.90
2022-12-25T05:43:36.588Z,159.73
2022-12-25T05:46:06.322Z,287.97
2022-12-25T05:48:35.099Z,110.47
2022-12-25T05:51:04.978Z,209.67
2022-12-25T05:53:32.404Z,145.03
2022-12-25T05:56:02.729Z,171.27
2022-12-25T05:58:30.075Z,95.93
2022-12-25T06:05:18.987Z,179.90
2022-12-25T06:07:45.926Z,307.03
2022-12-25T06:10:14.919Z,226.87
2022-12-25T06:12:42.362Z,298.07
2022-12-25T06:15:09.826Z,340.37
2022-12-25T06:17:37.120Z,368.43
2022-12-25T06:20:05.378Z,261.17
2022-12-25T06:27:05.458Z,291.07
2022-12-25T06:29:32.747Z,368.87
2022-12-25T06:32:16.218Z,350.87
2022-12-25T06:34:44.150Z,395.30
2022-12-25T06:37:19.188Z,379.57
2022-12-25T06:39:47.590Z,242.80
2022-12-25T06:42:16.119Z,300.10
2022-12-25T06:44:46.763Z,433.03
2022-12-25T06:52:23.398Z,328.13
2022-12-25T06:54:51.340Z,428.97
2022-12-25T06:57:19.197Z,385.33
2022-12-25T06:59:51.249Z,342.23
2022-12-25T07:02:23.086Z,587.63
2022-12-25T07:04:51.040Z,602.37
2022-12-25T07:07:17.987Z,788.47
2022-12-25T07:14:07.026Z,346.03
2022-12-25T07:16:34.345Z,510.20
2022-12-25T07:19:01.697Z,603.60
2022-12-25T07:21:29.122Z,501.90
2022-12-25T07:23:56.041Z,770.13
2022-12-25T07:26:23.413Z,555.90
2022-12-25T07:28:50.607Z,671.07
2022-12-25T07:35:41.226Z,609.00
2022-12-25T07:38:10.005Z,741.63
2022-12-25T07:40:37.991Z,897.23
2022-12-25T07:43:06.713Z,400.90
2022-12-25T07:45:34.832Z,500.67
2022-12-25T07:48:05.772Z,459.40
2022-12-25T07:50:35.027Z,891.17
2022-12-25T07:53:03.646Z,626.33
2022-12-25T07:55:31.049Z,599.67
2022-12-25T08:03:02.535Z,836.40
2022-12-25T08:05:29.949Z,641.83
2022-12-25T08:07:58.247Z,600.00
2022-12-25T08:10:25.799Z,697.07
2022-12-25T08:12:56.043Z,396.33
2022-12-25T08:15:25.673Z,510.23
2022-12-25T08:17:53.169Z,443.00
2022-12-25T08:25:00.425Z,734.77
2022-12-25T08:27:27.845Z,746.00
2022-12-25T08:29:55.154Z,762.50
2022-12-25T08:32:22.498Z,953.10
2022-12-25T08:34:49.827Z,641.47
2022-12-25T08:37:17.696Z,805.83
2022-12-25T08:39:45.057Z,624.53
2022-12-25T08:46:43.038Z,831.10
2022-12-25T08:49:10.277Z,536.53
2022-12-25T08:51:37.633Z,710.23
2022-12-25T08:54:05.398Z,613.30
2022-12-25T08:56:32.797Z,531.77
2022-12-25T08:59:01.045Z,702.00
2022-12-25T09:01:28.597Z,658.70
2022-12-25T09:06:42.886Z,729.37
2022-12-25T09:09:11.973Z,710.30
2022-12-25T09:11:39.253Z,674.77
2022-12-25T09:14:07.057Z,523.10
2022-12-25T09:16:34.273Z,460.90
2022-12-25T09:19:02.076Z,439.87
2022-12-25T09:21:29.467Z,449.83
2022-12-25T09:28:51.895Z,494.40
2022-12-25T09:31:22.495Z,475.57
2022-12-25T09:33:52.315Z,380.30
2022-12-25T09:36:23.020Z,228.73
2022-12-25T09:38:50.615Z,154.37
2022-12-25T09:41:21.954Z,79.17
2022-12-25T09:59:54.236Z,16.17
2022-12-25T10:02:53.914Z,17.90
2022-12-25T10:05:49.747Z,12.33
2022-12-25T10:08:32.195Z,14.50
2022-12-25T10:11:07.499Z,14.67
2022-12-25T10:21:36.165Z,19.90
2022-12-25T10:24:15.509Z,12.83
2022-12-25T10:26:48.506Z,12.87
2022-12-25T10:29:21.336Z,12.03
2022-12-25T10:31:53.871Z,17.47
2022-12-25T10:34:24.391Z,12.87
2022-12-25T10:37:00.738Z,16.80
2022-12-25T10:39:33.152Z,13.07
2022-12-25T10:47:38.302Z,11.27
2022-12-25T10:50:19.979Z,18.87
2022-12-25T10:53:05.842Z,16.77
2022-12-25T10:55:35.087Z,17.97
2022-12-25T10:58:16.208Z,13.20
2022-12-25T11:00:58.243Z,19.23
2022-12-25T11:04:00.321Z,17.47
2022-12-25T11:06:31.468Z,14.77
2022-12-25T11:13:33.138Z,17.73
2022-12-25T11:16:10.203Z,15.80
2022-12-25T11:18:47.178Z,15.27
2022-12-25T11:21:22.668Z,17.07
2022-12-25T11:24:00.917Z,15.73
2022-12-25T11:26:38.145Z,17.87
2022-12-25T11:29:21.489Z,18.90
2022-12-25T11:36:45.391Z,21.77
2022-12-25T11:39:33.287Z,17.87
2022-12-25T11:42:07.578Z,18.23
2022-12-25T11:44:44.237Z,19.63
2022-12-25T11:47:22.219Z,18.73
2022-12-25T11:50:00.758Z,15.57
2022-12-25T11:57:39.215Z,12.20
2022-12-25T12:00:17.328Z,13.10
2022-12-25T12:02:50.849Z,13.57
2022-12-25T12:05:29.180Z,9.53
2022-12-25T12:08:01.707Z,13.80
2022-12-25T12:10:41.018Z,10.23
2022-12-25T12:19:26.649Z,7.50
2022-12-25T12:21:59.946Z,8.30
2022-12-25T12:24:36.575Z,3.60
2022-12-25T12:27:09.274Z,5.97
2022-12-25T12:29:43.738Z,4.07
2022-12-25T12:32:35.875Z,9.90
2022-12-25T12:40:27.555Z,4.63
2022-12-25T12:42:57.075Z,9.50
2022-12-25T12:45:29.902Z,4.97
2022-12-25T12:48:00.126Z,5.93
2022-12-25T12:50:35.178Z,6.50
2022-12-25T12:53:29.044Z,6.47
2022-12-25T12:58:54.205Z,5.33
2022-12-25T13:01:50.832Z,9.03
2022-12-25T13:04:55.126Z,6.97
2022-12-25T13:07:44.209Z,6.00
2022-12-25T13:10:24.797Z,4.70
2022-12-25T13:12:55.456Z,5.17
2022-12-25T13:20:46.926Z,10.37
2022-12-25T13:23:28.252Z,5.13
2022-12-25T13:26:01.862Z,11.27
2022-12-25T13:28:33.027Z,8.23
2022-12-25T13:31:12.628Z,7.00
2022-12-25T13:33:43.194Z,8.47
2022-12-25T13:39:10.141Z,9.47
2022-12-25T13:42:02.767Z,14.27
2022-12-25T13:44:39.770Z,8.60
2022-12-25T13:47:27.416Z,9.07
2022-12-25T13:49:58.543Z,9.47
2022-12-25T13:52:33.134Z,11.67
2022-12-25T14:00:42.958Z,9.93
2022-12-25T14:03:20.443Z,26.87
2022-12-25T14:05:59.759Z,11.63
2022-12-25T14:08:37.994Z,12.17
2022-12-25T14:11:08.983Z,11.80
2022-12-25T14:13:40.641Z,10.53
2022-12-25T14:19:38.651Z,13.43
2022-12-25T14:22:10.890Z,9.07
2022-12-25T14:24:40.514Z,11.57
2022-12-25T14:27:20.291Z,12.27
2022-12-25T14:29:54.808Z,10.77
2022-12-25T14:32:28.928Z,11.83
2022-12-25T14:40:27.747Z,9.83
2022-12-25T14:42:56.466Z,10.90
2022-12-25T14:45:31.730Z,11.97
2022-12-25T14:48:04.275Z,9.83
2022-12-25T14:50:43.185Z,10.73
2022-12-25T14:53:20.448Z,11.33
2022-12-25T14:55:51.277Z,10.40
2022-12-25T15:02:53.766Z,7.37
2022-12-25T15:05:33.590Z,8.50
2022-12-25T15:08:20.690Z,7.73
2022-12-25T15:11:01.098Z,7.97
2022-12-25T15:13:30.589Z,7.00
2022-12-25T15:16:04.326Z,6.17
2022-12-25T15:21:17.132Z,7.37
2022-12-25T15:23:46.766Z,7.40
2022-12-25T15:26:16.608Z,5.83
2022-12-25T15:28:44.957Z,6.37
2022-12-25T15:31:22.506Z,5.10
2022-12-25T15:33:53.015Z,6.27
2022-12-25T15:39:04.778Z,5.13
2022-12-25T15:41:54.266Z,4.43
2022-12-25T15:44:22.223Z,5.80
2022-12-25T15:46:49.966Z,4.07
2022-12-25T15:49:19.939Z,5.67
2022-12-25T15:51:49.323Z,4.73
2022-12-25T15:54:21.428Z,8.33
2022-12-25T15:59:36.684Z,6.30
2022-12-25T16:02:10.561Z,5.87
2022-12-25T16:04:42.491Z,2.97
2022-12-25T16:07:15.399Z,5.27
2022-12-25T16:09:42.728Z,5.50
2022-12-25T16:12:13.533Z,4.27
2022-12-25T16:14:44.709Z,3.23
2022-12-25T16:21:25.316Z,5.83
2022-12-25T16:23:52.920Z,7.30
2022-12-25T16:26:28.467Z,3.93
2022-12-25T16:29:03.575Z,5.37
2022-12-25T16:31:36.228Z,7.23
2022-12-25T16:34:06.952Z,4.80
2022-12-25T16:36:38.077Z,8.47
2022-12-25T16:44:16.077Z,8.07
2022-12-25T16:46:47.543Z,5.57
2022-12-25T16:49:20.355Z,5.27
2022-12-25T16:51:51.029Z,4.33
2022-12-25T16:54:23.399Z,6.47
2022-12-25T16:56:54.359Z,9.50
2022-12-25T16:59:26.495Z,5.27
2022-12-25T17:05:02.207Z,5.70
2022-12-25T17:07:38.602Z,4.87
2022-12-25T17:10:13.259Z,8.27
2022-12-25T17:12:42.615Z,8.67
2022-12-25T17:15:14.475Z,5.83
2022-12-25T17:17:46.724Z,5.90
2022-12-25T17:20:19.021Z,5.00
2022-12-25T17:22:54.152Z,4.77
2022-12-25T17:28:08.078Z,7.10
2022-12-25T17:30:39.206Z,4.87
2022-12-25T17:33:10.712Z,9.87
2022-12-25T17:35:42.315Z,6.10
2022-12-25T17:38:18.310Z,4.53
2022-12-25T17:40:56.935Z,5.73
2022-12-25T17:46:22.708Z,6.07
2022-12-25T17:48:52.559Z,10.00
2022-12-25T17:51:23.501Z,4.53
2022-12-25T17:53:56.416Z,8.43
2022-12-25T17:56:26.016Z,4.80
2022-12-25T17:58:55.526Z,9.40
2022-12-25T18:04:06.799Z,4.77
2022-12-25T18:06:37.690Z,6.20
2022-12-25T18:09:10.277Z,9.17
2022-12-25T18:11:44.258Z,4.73
2022-12-25T18:14:21.115Z,6.07
2022-12-25T18:16:57.776Z,7.93
2022-12-25T18:25:36.568Z,8.73
2022-12-25T18:28:09.530Z,8.50
2022-12-25T18:30:40.793Z,4.03
2022-12-25T18:33:08.066Z,5.60
2022-12-25T18:35:38.089Z,3.17
2022-12-25T18:38:10.986Z,2.40
2022-12-25T18:40:41.988Z,5.97
2022-12-25T18:46:00.608Z,2.60
2022-12-25T18:48:33.172Z,5.07
2022-12-25T18:51:08.034Z,4.73
2022-12-25T18:53:38.498Z,4.40
2022-12-25T18:56:10.387Z,2.67
2022-12-25T18:58:38.487Z,4.90
2022-12-25T19:04:13.813Z,4.10
2022-12-25T19:06:52.091Z,4.10
2022-12-25T19:09:30.661Z,3.63
2022-12-25T19:12:03.462Z,5.70
2022-12-25T19:14:47.426Z,3.10
2022-12-25T19:17:22.564Z,2.73
2022-12-25T19:28:32.263Z,5.23
2022-12-25T19:31:02.908Z,7.17
2022-12-25T19:33:39.157Z,4.60
2022-12-25T19:36:22.708Z,7.67
2022-12-25T19:38:56.185Z,4.53
2022-12-25T19:41:26.237Z,2.33
2022-12-25T19:44:10.485Z,4.23
2022-12-25T19:46:43.127Z,2.93
2022-12-25T19:54:52.908Z,4.50
2022-12-25T19:57:30.326Z,3.97
2022-12-25T20:00:05.537Z,3.43
2022-12-25T20:02:40.003Z,4.33
2022-12-25T20:05:13.647Z,3.80
2022-12-25T20:08:02.938Z,2.43
2022-12-25T20:10:52.147Z,2.27
2022-12-25T20:13:23.796Z,3.37
2022-12-25T20:18:56.139Z,4.37
2022-12-25T20:21:27.661Z,3.73
2022-12-25T20:23:57.504Z,2.57
2022-12-25T20:26:32.950Z,4.97
2022-12-25T20:29:03.498Z,4.37
2022-12-25T20:31:36.431Z,3.03
2022-12-25T20:37:35.556Z,5.13
2022-12-25T20:40:06.259Z,3.63
2022-12-25T20:42:37.127Z,3.53
2022-12-25T20:45:08.972Z,5.10
2022-12-25T20:47:40.654Z,3.50
2022-12-25T20:50:11.883Z,5.73
2022-12-25T20:52:47.400Z,5.67
2022-12-25T20:59:56.907Z,4.60
2022-12-25T21:02:53.922Z,7.17
2022-12-25T21:05:26.103Z,5.67
2022-12-25T21:07:54.169Z,7.53
2022-12-25T21:10:27.048Z,4.87
2022-12-25T21:12:55.465Z,4.13
2022-12-25T21:16:22.498Z,6.37
2022-12-25T21:19:00.810Z,6.03
2022-12-25T21:21:33.531Z,5.10
2022-12-25T21:24:06.676Z,4.57
2022-12-25T21:34:04.228Z,4.63
2022-12-25T21:36:35.429Z,4.93
2022-12-25T21:39:05.168Z,5.30
2022-12-25T21:41:33.943Z,5.10
2022-12-25T21:44:02.235Z,7.70
2022-12-25T21:46:30.289Z,6.87
2022-12-25T21:48:58.836Z,6.67
2022-12-25T21:54:06.891Z,5.87
2022-12-25T21:56:43.057Z,6.10
2022-12-25T21:59:13.759Z,6.27
2022-12-25T22:01:44.329Z,4.37
2022-12-25T22:04:13.312Z,5.40
2022-12-25T22:07:00.213Z,7.03
2022-12-25T22:09:29.640Z,4.77
2022-12-25T22:15:02.193Z,5.77
2022-12-25T22:17:49.001Z,4.17
2022-12-25T22:20:18.184Z,5.33
2022-12-25T22:22:45.506Z,7.30
2022-12-25T22:25:14.571Z,4.70
2022-12-25T22:27:44.617Z,3.33
2022-12-25T22:35:44.076Z,8.17
2022-12-25T22:38:15.294Z,12.53
2022-12-25T22:40:42.858Z,3.60
2022-12-25T22:43:10.207Z,4.40
2022-12-25T22:45:38.176Z,6.63
2022-12-25T22:48:08.697Z,6.70
2022-12-25T22:50:36.811Z,4.20
2022-12-25T22:58:05.777Z,5.90
2022-12-25T23:00:33.245Z,4.77
2022-12-25T23:03:01.401Z,5.33
2022-12-25T23:05:28.713Z,4.47
2022-12-25T23:07:56.140Z,4.67
2022-12-25T23:10:23.975Z,3.73
2022-12-25T23:13:08.657Z,4.20
2022-12-25T23:20:23.799Z,4.40
2022-12-25T23:23:05.339Z,11.10
2022-12-25T23:25:58.165Z,4.57
2022-12-25T23:28:40.010Z,3.80
2022-12-25T23:31:10.764Z,9.70
2022-12-25T23:33:38.055Z,7.23
2022-12-25T23:38:48.438Z,4.93
2022-12-25T23:41:16.743Z,7.17
2022-12-25T23:43:45.155Z,4.77
2022-12-25T23:46:13.159Z,5.60
2022-12-25T23:48:40.646Z,6.50
2022-12-25T23:51:08.647Z,4.03
2022-12-25T23:53:37.316Z,4.97
2022-12-25T23:56:07.426Z,3.70
